MeteoGriva Station Historical Data
 
Daily Summary for January 29, 2020 Units:  Metric    English   Both
Daily Weekly Monthly Yearly Custom
  Current: High: Low: Average:
Temperature: 7.4 °C 11.1 °C 7.2 °C 9 °C
Dew Point: 5.9 °C 7.4 °C 4.2 °C 6 °C
Humidity: 89.7% 91.7% 71% 82%
Wind Speed: 0km/h 8.3km/h 0km/h 1km/h
Wind Gust: 0km/h 20.1km/h - -
WindCalm - - SSW
Pressure: 1006.1 hPa 1009.5 hPa 1006.1 hPa -
Precipitation: 0.0 mm      
Historical Graphs
 
 
Tabular Data for January 29, 2020
Time Temperature Dew Point Pressure Wind Wind Speed Wind Gust Humidity Rainfall Rate (Hourly) solar
00:04 8.2 °C 6.4 °C 1009.5 hPa Calm     88.7% 0.0 mm 0 W/m2
00:09 8 °C 5.8 °C 1009.5 hPa Calm     85.9% 0.0 mm 0 W/m2
00:14 8.2 °C 5 °C 1009.5 hPa Calm     80.7% 0.0 mm 0 W/m2
00:19 9.5 °C 5.5 °C 1009.5 hPa SSW 3.2 km/h 12.2 km/h 75.8% 0.0 mm 0 W/m2
00:24 9.7 °C 5.2 °C 1009.1 hPa South 3.3 km/h 12.2 km/h 73.4% 0.0 mm 0 W/m2
00:29 9.9 °C 5.3 °C 1009.1 hPa South 1 km/h 7.9 km/h 73.1% 0.0 mm 0 W/m2
00:34 10.1 °C 5.5 °C 1009.1 hPa South 1.9 km/h 12.2 km/h 73% 0.0 mm 0 W/m2
00:39 10.8 °C 6.1 °C 1009.1 hPa SW 2.3 km/h 16.3 km/h 72.6% 0.0 mm 0 W/m2
00:44 10.8 °C 6.1 °C 1009.1 hPa South 1.7 km/h 16.3 km/h 72.6% 0.0 mm 0 W/m2
00:49 10.8 °C 6 °C 1009.1 hPa SSW 2.1 km/h 12.2 km/h 72% 0.0 mm 0 W/m2
00:54 10.8 °C 6.1 °C 1009.1 hPa South 2.1 km/h 12.2 km/h 72.6% 0.0 mm 0 W/m2
00:59 10.7 °C 6.1 °C 1008.8 hPa South 4.9 km/h 16.3 km/h 72.7% 0.0 mm 0 W/m2
01:04 10.8 °C 5.8 °C 1009.1 hPa SSE 4.1 km/h 16.3 km/h 71.2% 0.0 mm 0 W/m2
01:09 10.9 °C 5.8 °C 1009.1 hPa South 8.3 km/h 16.3 km/h 71% 0.0 mm 0 W/m2
01:14 10.9 °C 5.9 °C 1009.1 hPa South 1.9 km/h 16.3 km/h 71.3% 0.0 mm 0 W/m2
01:19 10.8 °C 6.2 °C 1009.1 hPa Calm   7.9 km/h 72.8% 0.0 mm 0 W/m2
01:24 10.8 °C 6.3 °C 1009.1 hPa SSE 0.3 km/h 7.9 km/h 73.4% 0.0 mm 0 W/m2
01:29 10.7 °C 6.8 °C 1009.1 hPa Calm   4 km/h 77.3% 0.0 mm 0 W/m2
01:34 10.5 °C 6.9 °C 1009.1 hPa Calm     78.9% 0.0 mm 0 W/m2
01:39 9.3 °C 5.8 °C 1009.1 hPa Calm     78.7% 0.0 mm 0 W/m2
01:44 9.3 °C 5.5 °C 1008.8 hPa Calm     77% 0.0 mm 0 W/m2
01:49 9.4 °C 5.7 °C 1008.8 hPa SE 0.1 km/h 4 km/h 77.4% 0.0 mm 0 W/m2
01:54 9.5 °C 5.4 °C 1008.5 hPa South 3.7 km/h 16.3 km/h 75.4% 0.0 mm 0 W/m2
01:59 10.9 °C 6.2 °C 1008.5 hPa South 4.7 km/h 12.2 km/h 72.6% 0.0 mm 0 W/m2
02:04 11.1 °C 6.4 °C 1008.5 hPa South 2.3 km/h 12.2 km/h 72.8% 0.0 mm 0 W/m2
02:09 11.1 °C 6.4 °C 1008.5 hPa South 3.6 km/h 16.3 km/h 73% 0.0 mm 0 W/m2
02:14 11.1 °C 6.4 °C 1008.5 hPa SSE 2.4 km/h 20.1 km/h 73% 0.0 mm 0 W/m2
02:19 11 °C 6.5 °C 1008.1 hPa South 2.6 km/h 7.9 km/h 73.9% 0.0 mm 0 W/m2
02:24 11 °C 6.5 °C 1007.8 hPa South 1.3 km/h 12.2 km/h 74% 0.0 mm 0 W/m2
02:29 11 °C 6.4 °C 1008.1 hPa South 1.1 km/h 7.9 km/h 73.5% 0.0 mm 0 W/m2
02:34 11 °C 6.3 °C 1007.8 hPa Calm   7.9 km/h 73% 0.0 mm 0 W/m2
02:39 10.8 °C 6.4 °C 1007.8 hPa NE 0.3 km/h 4 km/h 74.6% 0.0 mm 0 W/m2
02:44 10.8 °C 6.3 °C 1007.8 hPa Calm     73.9% 0.0 mm 0 W/m2
02:49 10.8 °C 6.4 °C 1008.1 hPa NE 0.2 km/h 4 km/h 74.2% 0.0 mm 0 W/m2
02:54 10.8 °C 6.6 °C 1007.8 hPa SE 0.1 km/h 4 km/h 75.8% 0.0 mm 0 W/m2
02:59 9.8 °C 6.3 °C 1008.1 hPa Calm   4 km/h 78.7% 0.0 mm 0 W/m2
03:04 9.6 °C 6.8 °C 1007.8 hPa Calm   7.9 km/h 82.4% 0.0 mm 0 W/m2
03:09 9.4 °C 6.5 °C 1007.8 hPa Calm     82% 0.0 mm 0 W/m2
03:14 9.2 °C 6.4 °C 1007.8 hPa Calm     82.6% 0.0 mm 0 W/m2
03:19 8.1 °C 6 °C 1007.8 hPa NNW 1.8 km/h 12.2 km/h 86.3% 0.0 mm 0 W/m2
03:24 7.9 °C 5.6 °C 1007.8 hPa NE 0.1 km/h 7.9 km/h 85.1% 0.0 mm 0 W/m2
03:29 8 °C 5.5 °C 1007.8 hPa NNE 0.2 km/h 7.9 km/h 84.1% 0.0 mm 0 W/m2
03:34 8.1 °C 6 °C 1007.5 hPa Calm     86.3% 0.0 mm 0 W/m2
03:39 7.8 °C 6 °C 1007.8 hPa Calm     88.4% 0.0 mm 0 W/m2
03:44 7.7 °C 5.9 °C 1007.5 hPa Calm   4 km/h 88.6% 0.0 mm 0 W/m2
03:49 7.6 °C 6.1 °C 1007.8 hPa Calm     90% 0.0 mm 0 W/m2
03:54 7.5 °C 6 °C 1007.5 hPa Calm     90% 0.0 mm 0 W/m2
03:59 7.3 °C 5.9 °C 1007.5 hPa NNW 1.1 km/h 7.9 km/h 90.7% 0.0 mm 0 W/m2
04:04 7.2 °C 5.7 °C 1007.1 hPa NNW 0.8 km/h 7.9 km/h 90.1% 0.0 mm 0 W/m2
04:09 7.3 °C 4.9 °C 1006.8 hPa South 1.2 km/h 12.2 km/h 84.7% 0.0 mm 0 W/m2
04:14 7.7 °C 4.2 °C 1006.8 hPa South 0.8 km/h 12.2 km/h 78.4% 0.0 mm 0 W/m2
04:19 8.1 °C 5.9 °C 1007.1 hPa Calm     86.1% 0.0 mm 0 W/m2
04:24 8 °C 6.5 °C 1006.8 hPa Calm     89.7% 0.0 mm 0 W/m2
04:29 7.9 °C 6.5 °C 1006.8 hPa NNW 1.3 km/h 4 km/h 91% 0.0 mm 0 W/m2
04:34 7.7 °C 6.4 °C 1006.8 hPa NNW 2 km/h 7.9 km/h 91.2% 0.0 mm 0 W/m2
04:39 7.4 °C 6.1 °C 1006.8 hPa Calm     91.7% 0.0 mm 0 W/m2
04:44 7.2 °C 5.7 °C 1006.4 hPa Calm     89.9% 0.0 mm 0 W/m2
04:49 7.2 °C 5.4 °C 1006.8 hPa Calm     88.1% 0.0 mm 0 W/m2
04:54 7.4 °C 4.6 °C 1006.8 hPa Calm     81.9% 0.0 mm 0 W/m2
04:59 8.9 °C 5.5 °C 1006.8 hPa NNW 0.2 km/h 4 km/h 79.2% 0.0 mm 0 W/m2
05:04 9.3 °C 7.3 °C 1006.8 hPa NNW 0.6 km/h 7.9 km/h 87.2% 0.0 mm 0 W/m2
05:09 9 °C 7.4 °C 1006.8 hPa NNW 0.4 km/h 7.9 km/h 90% 0.0 mm 0 W/m2
05:14 8.6 °C 7.1 °C 1006.4 hPa Calm   4 km/h 90% 0.0 mm 0 W/m2
05:19 7.8 °C 6.2 °C 1006.8 hPa Calm     89.3% 0.0 mm 0 W/m2
05:24 7.4 °C 5.7 °C 1006.8 hPa NNW 0.3 km/h 4 km/h 89% 0.0 mm 0 W/m2
05:29 7.4 °C 5.7 °C 1007.1 hPa NNW 2.4 km/h 7.9 km/h 89% 0.0 mm 0 W/m2
05:34 7.4 °C 5.7 °C 1007.1 hPa NNW 1 km/h 7.9 km/h 89% 0.0 mm 0 W/m2
05:39 7.5 °C 5.8 °C 1006.8 hPa Calm     89% 0.0 mm 0 W/m2
05:44 7.4 °C 5.8 °C 1006.8 hPa Calm     89.2% 0.0 mm 0 W/m2
05:49 7.4 °C 5.9 °C 1006.8 hPa Calm     90% 0.0 mm 0 W/m2
05:54 7.4 °C 5.9 °C 1006.8 hPa Calm     90% 0.0 mm 0 W/m2
05:59 7.3 °C 5.8 °C 1006.8 hPa Calm     90% 0.0 mm 0 W/m2
06:04 7.3 °C 5.6 °C 1006.8 hPa NNW 0.3 km/h 4 km/h 89.2% 0.0 mm 0 W/m2
06:09 7.3 °C 5.5 °C 1006.4 hPa North 0.6 km/h 7.9 km/h 88.4% 0.0 mm 0 W/m2
06:14 7.4 °C 5.7 °C 1006.4 hPa Calm     89% 0.0 mm 0 W/m2
06:19 7.4 °C 5.9 °C 1006.1 hPa Calm     89.7% 0.0 mm 0 W/m2
Juneau County Weather
Compliments of Weather Underground - 2 mb